Time;durP1;ratioP1;P1;durP2;ratioP2;P2;SDS_P1;SDS_P2;PMS_P1;PMS_P2;Temp;Humidity;BMP_temperature;BMP_pressure;BME280_temperature;BME280_humidity;BME280_pressure;Samples;Min_cycle;Max_cycle;Signal;HPM_P1;HPM_P2
2022/03/09 00:01:27;;;;;;;86.13;45.57;;;;;;;;;;760193;184;633415;-68
2022/03/09 00:03:52;;;;;;;102.13;48.53;;;;;;;;;;752755;184;620168;-68
2022/03/09 00:06:18;;;;;;;84.70;44.57;;;;;;;;;;742385;189;619955;-67
2022/03/09 00:08:44;;;;;;;101.57;46.30;;;;;;;;;;756939;184;641518;-68
2022/03/09 00:11:09;;;;;;;83.00;41.90;;;;;;;;;;752945;184;633753;-68
2022/03/09 00:13:35;;;;;;;85.03;43.07;;;;;;;;;;752390;184;631419;-68
2022/03/09 00:16:01;;;;;;;89.37;46.13;;;;;;;;;;751668;186;639082;-68
2022/03/09 00:18:27;;;;;;;94.20;49.20;;;;;;;;;;753845;183;616458;-68
2022/03/09 00:20:53;;;;;;;86.53;46.17;;;;;;;;;;755904;184;633262;-68
2022/03/09 00:23:19;;;;;;;83.53;44.10;;;;;;;;;;751649;186;629835;-67
2022/03/09 00:25:45;;;;;;;76.80;42.10;;;;;;;;;;756544;184;637828;-67
2022/03/09 00:28:11;;;;;;;77.53;41.58;;;;;;;;;;756663;184;622388;-66
2022/03/09 00:30:37;;;;;;;77.80;42.00;;;;;;;;;;774022;181;633621;-68
2022/03/09 00:33:03;;;;;;;69.85;41.50;;;;;;;;;;755474;183;629247;-67
2022/03/09 00:35:28;;;;;;;64.63;36.33;;;;;;;;;;754504;183;633064;-67
2022/03/09 00:37:54;;;;;;;74.23;37.00;;;;;;;;;;754255;183;627992;-68
2022/03/09 00:40:21;;;;;;;72.40;40.40;;;;;;;;;;756660;184;645506;-68
2022/03/09 00:42:46;;;;;;;80.27;41.07;;;;;;;;;;762658;184;900959;-68
2022/03/09 00:45:12;;;;;;;73.40;40.57;;;;;;;;;;768537;184;630807;-68
2022/03/09 00:47:38;;;;;;;68.17;38.27;;;;;;;;;;763270;184;630652;-70
2022/03/09 00:50:04;;;;;;;72.83;36.53;;;;;;;;;;757220;184;629306;-68
2022/03/09 00:52:30;;;;;;;66.77;36.47;;;;;;;;;;757937;184;618823;-67
2022/03/09 00:54:55;;;;;;;74.17;41.40;;;;;;;;;;755090;184;631026;-68
2022/03/09 00:57:21;;;;;;;71.53;39.97;;;;;;;;;;758408;184;631919;-66
2022/03/09 00:59:47;;;;;;;70.37;38.70;;;;;;;;;;759206;184;653127;-67
2022/03/09 01:02:13;;;;;;;74.53;39.13;;;;;;;;;;766909;183;633738;-67
2022/03/09 01:04:39;;;;;;;66.23;38.27;;;;;;;;;;756230;183;620231;-67
2022/03/09 01:07:05;;;;;;;75.53;39.57;;;;;;;;;;752514;184;630265;-67
2022/03/09 01:09:31;;;;;;;72.33;38.53;;;;;;;;;;759891;184;628613;-67
2022/03/09 01:11:57;;;;;;;65.43;38.33;;;;;;;;;;766831;180;635333;-67
2022/03/09 01:14:23;;;;;;;73.83;37.17;;;;;;;;;;755336;184;623552;-67
2022/03/09 01:16:49;;;;;;;75.70;41.53;;;;;;;;;;757807;183;633605;-67
2022/03/09 01:19:15;;;;;;;72.50;40.40;;;;;;;;;;752126;184;618626;-68
2022/03/09 01:21:40;;;;;;;79.77;39.07;;;;;;;;;;756006;184;639258;-67
2022/03/09 01:24:06;;;;;;;79.90;43.40;;;;;;;;;;760783;184;633498;-67
2022/03/09 01:26:32;;;;;;;71.47;40.60;;;;;;;;;;763585;183;623883;-67
2022/03/09 01:28:58;;;;;;;69.67;39.13;;;;;;;;;;755793;184;640094;-67
2022/03/09 01:31:24;;;;;;;71.47;42.33;;;;;;;;;;753102;185;641104;-66
2022/03/09 01:33:50;;;;;;;73.63;41.30;;;;;;;;;;760556;184;619106;-67
2022/03/09 01:36:16;;;;;;;84.60;45.47;;;;;;;;;;757934;184;624093;-67
2022/03/09 01:38:41;;;;;;;92.17;45.40;;;;;;;;;;755836;184;643580;-67
2022/03/09 01:41:07;;;;;;;78.97;40.90;;;;;;;;;;757053;184;637052;-67
2022/03/09 01:43:33;;;;;;;77.53;43.77;;;;;;;;;;754952;183;619976;-68
2022/03/09 01:45:59;;;;;;;74.10;42.13;;;;;;;;;;755164;183;629717;-67
2022/03/09 01:48:25;;;;;;;77.10;42.00;;;;;;;;;;754044;183;631217;-67
2022/03/09 01:50:51;;;;;;;80.60;45.90;;;;;;;;;;733219;186;656119;-67
2022/03/09 01:53:16;;;;;;;74.60;41.87;;;;;;;;;;760788;184;624301;-67
2022/03/09 01:55:42;;;;;;;70.97;40.20;;;;;;;;;;753699;183;647059;-66
2022/03/09 01:58:08;;;;;;;85.43;43.23;;;;;;;;;;752910;183;707453;-67
2022/03/09 02:00:34;;;;;;;83.37;45.07;;;;;;;;;;749082;183;626132;-67
2022/03/09 02:03:00;;;;;;;81.37;42.97;;;;;;;;;;755843;184;624725;-67
2022/03/09 02:05:26;;;;;;;79.30;43.20;;;;;;;;;;760384;184;619318;-66
2022/03/09 02:10:23;;;;;;;80.83;47.17;;;;;;;;;;753636;184;624304;-67
2022/03/09 02:12:49;;;;;;;72.47;41.90;;;;;;;;;;758058;184;630333;-67
2022/03/09 02:15:15;;;;;;;77.67;40.80;;;;;;;;;;752942;183;666076;-67
2022/03/09 02:17:41;;;;;;;71.93;39.23;;;;;;;;;;754136;184;616054;-67
2022/03/09 02:20:07;;;;;;;74.83;45.57;;;;;;;;;;756618;184;629244;-66
2022/03/09 02:22:33;;;;;;;71.93;43.30;;;;;;;;;;757101;184;629727;-67
2022/03/09 02:24:59;;;;;;;88.63;46.40;;;;;;;;;;760818;184;635951;-66
2022/03/09 02:27:25;;;;;;;73.57;41.97;;;;;;;;;;763663;184;633006;-67
2022/03/09 02:29:51;;;;;;;79.47;41.50;;;;;;;;;;759655;184;635268;-66
2022/03/09 02:32:17;;;;;;;75.60;45.60;;;;;;;;;;750405;186;625795;-66
2022/03/09 02:34:43;;;;;;;70.30;43.80;;;;;;;;;;760164;183;681108;-67
2022/03/09 02:37:09;;;;;;;76.60;44.20;;;;;;;;;;756159;183;633981;-66
2022/03/09 02:39:34;;;;;;;75.10;43.43;;;;;;;;;;756896;183;636068;-67
2022/03/09 02:42:00;;;;;;;70.40;41.80;;;;;;;;;;748558;183;622084;-66
2022/03/09 02:44:26;;;;;;;80.13;46.77;;;;;;;;;;748335;183;644534;-65
2022/03/09 02:46:52;;;;;;;76.53;44.83;;;;;;;;;;752337;187;647946;-67
2022/03/09 02:49:18;;;;;;;84.70;47.40;;;;;;;;;;752405;183;617249;-67
2022/03/09 02:51:44;;;;;;;78.30;45.13;;;;;;;;;;761429;184;634702;-67
2022/03/09 02:54:09;;;;;;;80.87;42.97;;;;;;;;;;756499;183;627484;-68
2022/03/09 02:56:35;;;;;;;75.03;42.73;;;;;;;;;;752729;184;629629;-67
2022/03/09 02:59:01;;;;;;;84.40;47.73;;;;;;;;;;753632;183;642338;-66
2022/03/09 03:01:27;;;;;;;81.60;43.57;;;;;;;;;;754342;184;622057;-66
2022/03/09 03:03:53;;;;;;;74.80;43.27;;;;;;;;;;740058;183;2549302;-65
2022/03/09 03:06:19;;;;;;;77.00;43.40;;;;;;;;;;756503;184;630268;-65
2022/03/09 03:08:45;;;;;;;75.17;41.70;;;;;;;;;;756249;183;630493;-65
2022/03/09 03:11:10;;;;;;;84.57;42.93;;;;;;;;;;761671;183;694353;-67
2022/03/09 03:13:36;;;;;;;75.53;43.73;;;;;;;;;;752128;183;624635;-67
2022/03/09 03:16:02;;;;;;;73.53;43.30;;;;;;;;;;756382;184;640507;-68
2022/03/09 03:18:28;;;;;;;77.03;44.17;;;;;;;;;;759358;183;639991;-67
2022/03/09 03:20:55;;;;;;;80.30;46.47;;;;;;;;;;762005;184;625701;-67
2022/03/09 03:23:21;;;;;;;77.00;44.13;;;;;;;;;;761600;184;638083;-66
2022/03/09 03:25:46;;;;;;;82.80;45.23;;;;;;;;;;759137;183;639650;-66
2022/03/09 03:28:12;;;;;;;87.90;50.73;;;;;;;;;;764226;183;614703;-66
2022/03/09 03:30:38;;;;;;;88.30;44.50;;;;;;;;;;753688;184;636390;-66
2022/03/09 03:33:04;;;;;;;82.47;46.03;;;;;;;;;;764242;184;616956;-67
2022/03/09 03:35:30;;;;;;;73.43;44.10;;;;;;;;;;769787;181;619659;-66
2022/03/09 03:37:55;;;;;;;79.20;43.87;;;;;;;;;;753364;186;629425;-67
2022/03/09 03:40:21;;;;;;;86.87;43.97;;;;;;;;;;752772;184;623789;-66
2022/03/09 03:42:47;;;;;;;84.50;47.03;;;;;;;;;;760033;183;641837;-66
2022/03/09 03:45:13;;;;;;;88.30;47.53;;;;;;;;;;751485;185;631135;-66
2022/03/09 03:47:39;;;;;;;90.37;45.00;;;;;;;;;;757835;184;677559;-66
2022/03/09 03:50:05;;;;;;;87.73;47.77;;;;;;;;;;765479;184;627389;-66
2022/03/09 03:52:31;;;;;;;87.87;45.00;;;;;;;;;;757907;183;636914;-66
2022/03/09 03:54:57;;;;;;;82.97;45.83;;;;;;;;;;758249;184;628487;-67
2022/03/09 03:57:23;;;;;;;73.70;45.97;;;;;;;;;;759094;185;617280;-66
2022/03/09 03:59:48;;;;;;;92.03;48.30;;;;;;;;;;754563;185;630455;-67
2022/03/09 04:02:14;;;;;;;79.60;45.20;;;;;;;;;;762003;184;637340;-66
2022/03/09 04:04:40;;;;;;;78.93;44.67;;;;;;;;;;760467;184;625149;-66
2022/03/09 04:07:06;;;;;;;85.43;46.47;;;;;;;;;;757640;183;624952;-65
2022/03/09 04:09:32;;;;;;;88.10;46.90;;;;;;;;;;744984;183;709262;-66
2022/03/09 04:11:58;;;;;;;86.73;45.50;;;;;;;;;;759773;184;660108;-67
2022/03/09 04:14:23;;;;;;;87.33;46.07;;;;;;;;;;757413;183;628028;-66
2022/03/09 04:16:49;;;;;;;80.53;45.60;;;;;;;;;;755160;184;625899;-66
2022/03/09 04:19:15;;;;;;;77.10;47.53;;;;;;;;;;759233;184;627390;-66
2022/03/09 04:21:41;;;;;;;73.97;43.07;;;;;;;;;;761521;183;641862;-66
2022/03/09 04:24:07;;;;;;;74.80;43.17;;;;;;;;;;754885;184;635302;-66
2022/03/09 04:26:33;;;;;;;84.57;48.53;;;;;;;;;;756239;180;641769;-66
2022/03/09 04:28:58;;;;;;;85.60;46.97;;;;;;;;;;754604;184;622131;-66
2022/03/09 04:31:24;;;;;;;83.70;46.50;;;;;;;;;;756235;183;634037;-66
2022/03/09 04:33:50;;;;;;;84.47;47.17;;;;;;;;;;755233;183;654659;-66
2022/03/09 04:36:16;;;;;;;82.43;45.50;;;;;;;;;;755734;183;644949;-64
2022/03/09 04:38:42;;;;;;;85.70;46.10;;;;;;;;;;760175;184;630487;-66
2022/03/09 04:41:08;;;;;;;88.60;46.73;;;;;;;;;;757748;184;618624;-65
2022/03/09 04:43:34;;;;;;;91.28;46.30;;;;;;;;;;753447;184;625631;-66
2022/03/09 04:45:59;;;;;;;94.53;47.87;;;;;;;;;;758828;182;630016;-66
2022/03/09 04:48:26;;;;;;;95.10;47.50;;;;;;;;;;748945;183;636095;-66
2022/03/09 04:50:51;;;;;;;88.47;46.17;;;;;;;;;;754242;184;669362;-67
2022/03/09 04:53:18;;;;;;;84.07;45.25;;;;;;;;;;758748;184;627218;-66
2022/03/09 04:55:44;;;;;;;98.47;47.63;;;;;;;;;;763636;182;630118;-66
2022/03/09 04:58:10;;;;;;;88.60;47.03;;;;;;;;;;754860;184;632715;-66
2022/03/09 05:00:35;;;;;;;97.67;49.90;;;;;;;;;;754982;184;625361;-67
2022/03/09 05:03:01;;;;;;;85.77;45.50;;;;;;;;;;757944;184;633714;-66
2022/03/09 05:05:27;;;;;;;89.13;46.07;;;;;;;;;;755882;184;624287;-65
2022/03/09 05:07:53;;;;;;;87.27;47.20;;;;;;;;;;757044;184;637433;-67
2022/03/09 05:10:19;;;;;;;93.00;50.67;;;;;;;;;;761755;184;616893;-66
2022/03/09 05:12:45;;;;;;;86.47;47.17;;;;;;;;;;758843;184;623371;-67
2022/03/09 05:15:10;;;;;;;102.53;48.53;;;;;;;;;;754681;184;631170;-67
2022/03/09 05:17:40;;;;;;;86.23;46.33;;;;;;;;;;757273;184;625052;-66
2022/03/09 05:20:06;;;;;;;82.93;45.23;;;;;;;;;;760209;183;626948;-66
2022/03/09 05:22:32;;;;;;;88.93;46.27;;;;;;;;;;755069;183;618157;-66
2022/03/09 05:24:58;;;;;;;99.77;51.37;;;;;;;;;;750065;183;634199;-65
2022/03/09 05:27:27;;;;;;;104.13;48.87;;;;;;;;;;766550;183;659018;-66
2022/03/09 05:29:52;;;;;;;96.30;54.90;;;;;;;;;;762085;183;626236;-67
2022/03/09 05:32:18;;;;;;;103.40;50.27;;;;;;;;;;752356;184;641962;-67
2022/03/09 05:34:46;;;;;;;100.60;51.47;;;;;;;;;;763001;184;639445;-66
2022/03/09 05:37:10;;;;;;;105.37;54.77;;;;;;;;;;758519;184;627315;-66
2022/03/09 05:39:36;;;;;;;96.60;50.40;;;;;;;;;;750556;183;616904;-65
2022/03/09 05:42:02;;;;;;;96.83;47.30;;;;;;;;;;760468;184;629047;-66
2022/03/09 05:44:27;;;;;;;99.23;49.47;;;;;;;;;;762644;180;625837;-66
2022/03/09 05:46:54;;;;;;;94.33;48.43;;;;;;;;;;759887;183;624794;-66
2022/03/09 05:49:20;;;;;;;114.03;53.83;;;;;;;;;;753562;183;626638;-64
2022/03/09 05:51:45;;;;;;;103.80;50.83;;;;;;;;;;758366;184;636675;-66
2022/03/09 05:54:11;;;;;;;102.87;53.20;;;;;;;;;;753304;184;634527;-68
2022/03/09 05:56:37;;;;;;;108.67;50.43;;;;;;;;;;755480;184;630098;-66
2022/03/09 05:59:03;;;;;;;116.23;59.70;;;;;;;;;;757641;184;617767;-64
2022/03/09 06:01:28;;;;;;;119.53;61.17;;;;;;;;;;755559;184;630801;-66
2022/03/09 06:03:54;;;;;;;121.17;60.70;;;;;;;;;;753641;185;626292;-66
2022/03/09 06:06:21;;;;;;;121.70;57.60;;;;;;;;;;758856;183;625132;-66
2022/03/09 06:08:47;;;;;;;120.83;61.17;;;;;;;;;;759347;183;701999;-65
2022/03/09 06:11:13;;;;;;;151.90;76.70;;;;;;;;;;755729;184;645256;-66
2022/03/09 06:13:39;;;;;;;136.93;65.63;;;;;;;;;;754621;184;622967;-66
2022/03/09 06:16:05;;;;;;;125.47;64.73;;;;;;;;;;759446;181;628716;-66
2022/03/09 06:18:31;;;;;;;123.93;59.37;;;;;;;;;;756393;184;661375;-66
2022/03/09 06:20:57;;;;;;;133.90;65.63;;;;;;;;;;754550;184;641157;-67
2022/03/09 06:23:22;;;;;;;144.70;75.17;;;;;;;;;;759586;184;634918;-66
2022/03/09 06:25:48;;;;;;;129.43;70.67;;;;;;;;;;756524;184;631048;-66
2022/03/09 06:28:14;;;;;;;120.22;59.08;;;;;;;;;;757120;182;639092;-66
2022/03/09 06:30:40;;;;;;;109.57;57.23;;;;;;;;;;755951;183;615127;-67
2022/03/09 06:33:06;;;;;;;117.73;65.33;;;;;;;;;;756818;184;618914;-66
2022/03/09 06:35:32;;;;;;;127.87;67.73;;;;;;;;;;753716;183;647424;-67
2022/03/09 06:37:58;;;;;;;112.80;56.90;;;;;;;;;;758230;183;630899;-66
2022/03/09 06:40:23;;;;;;;122.47;60.33;;;;;;;;;;756964;184;628334;-66
2022/03/09 06:42:49;;;;;;;108.17;53.93;;;;;;;;;;754971;184;617964;-66
2022/03/09 06:45:17;;;;;;;113.10;54.03;;;;;;;;;;752113;184;643976;-66
2022/03/09 06:47:43;;;;;;;114.83;60.20;;;;;;;;;;760071;184;640338;-67
2022/03/09 06:50:09;;;;;;;132.00;69.67;;;;;;;;;;766004;184;629041;-66
2022/03/09 06:52:35;;;;;;;136.90;63.90;;;;;;;;;;764473;184;636274;-65
2022/03/09 06:55:03;;;;;;;126.63;63.60;;;;;;;;;;756889;184;642045;-66
2022/03/09 06:57:28;;;;;;;144.50;78.60;;;;;;;;;;752454;183;640596;-67
2022/03/09 06:59:54;;;;;;;139.67;69.37;;;;;;;;;;764986;183;635161;-65
2022/03/09 07:02:19;;;;;;;129.00;65.80;;;;;;;;;;759643;184;632021;-66
2022/03/09 07:04:45;;;;;;;113.70;55.97;;;;;;;;;;755103;184;636578;-68
2022/03/09 07:07:11;;;;;;;124.07;59.47;;;;;;;;;;755281;184;630424;-66
2022/03/09 07:09:37;;;;;;;115.57;57.67;;;;;;;;;;756803;183;632654;-66
2022/03/09 07:12:03;;;;;;;174.60;80.17;;;;;;;;;;758051;185;631557;-66
2022/03/09 07:14:29;;;;;;;132.43;69.30;;;;;;;;;;755632;184;629487;-67
2022/03/09 07:16:55;;;;;;;128.97;61.30;;;;;;;;;;755302;184;618277;-66
2022/03/09 07:19:21;;;;;;;142.10;70.70;;;;;;;;;;757917;184;629569;-67
2022/03/09 07:21:46;;;;;;;130.57;61.47;;;;;;;;;;754584;184;617441;-66
2022/03/09 07:24:12;;;;;;;124.20;63.30;;;;;;;;;;746576;183;1143468;-66
2022/03/09 07:26:41;;;;;;;164.33;69.23;;;;;;;;;;752181;183;637706;-66
2022/03/09 07:29:04;;;;;;;118.27;63.27;;;;;;;;;;760621;184;618698;-67
2022/03/09 07:31:30;;;;;;;118.43;57.80;;;;;;;;;;749396;184;624076;-64
2022/03/09 07:33:56;;;;;;;130.13;58.53;;;;;;;;;;764476;184;632841;-64
2022/03/09 07:36:21;;;;;;;121.03;58.13;;;;;;;;;;764515;184;614239;-63
2022/03/09 07:38:47;;;;;;;118.10;58.47;;;;;;;;;;764599;184;623939;-61
2022/03/09 07:41:13;;;;;;;120.10;56.50;;;;;;;;;;764573;181;642566;-61
2022/03/09 07:43:39;;;;;;;128.63;63.07;;;;;;;;;;762902;183;627211;-61
2022/03/09 07:46:05;;;;;;;134.20;65.97;;;;;;;;;;758183;183;633886;-61
2022/03/09 07:48:31;;;;;;;151.40;71.07;;;;;;;;;;754312;183;634658;-62
2022/03/09 07:50:57;;;;;;;174.90;81.40;;;;;;;;;;756401;183;627848;-62
2022/03/09 07:53:22;;;;;;;176.03;83.20;;;;;;;;;;751432;183;626795;-63
2022/03/09 07:55:48;;;;;;;208.90;88.20;;;;;;;;;;754079;184;635990;-63
2022/03/09 07:58:14;;;;;;;191.47;79.80;;;;;;;;;;759628;184;629980;-63
2022/03/09 08:00:40;;;;;;;148.30;60.80;;;;;;;;;;757699;184;872877;-64
2022/03/09 08:03:06;;;;;;;100.10;46.97;;;;;;;;;;757036;184;636834;-67
2022/03/09 08:05:32;;;;;;;92.33;45.57;;;;;;;;;;755647;183;627915;-65
2022/03/09 08:07:57;;;;;;;63.40;37.13;;;;;;;;;;758181;184;625111;-66
2022/03/09 08:10:23;;;;;;;57.63;31.83;;;;;;;;;;757574;184;628297;-65
2022/03/09 08:12:49;;;;;;;61.63;31.90;;;;;;;;;;752977;184;633415;-65
2022/03/09 08:15:15;;;;;;;57.97;30.03;;;;;;;;;;756320;184;625025;-65
2022/03/09 08:17:41;;;;;;;57.60;29.60;;;;;;;;;;755481;184;629556;-65
2022/03/09 08:20:07;;;;;;;44.90;24.20;;;;;;;;;;758303;184;632246;-65
2022/03/09 08:22:33;;;;;;;53.30;24.00;;;;;;;;;;758679;184;628518;-66
2022/03/09 08:24:59;;;;;;;42.10;23.50;;;;;;;;;;768507;181;620500;-65
2022/03/09 08:27:25;;;;;;;36.13;21.03;;;;;;;;;;747828;185;623532;-65
2022/03/09 08:29:51;;;;;;;42.53;20.73;;;;;;;;;;756746;183;635495;-65
2022/03/09 08:32:18;;;;;;;40.00;22.80;;;;;;;;;;759924;184;632070;-67
2022/03/09 08:34:43;;;;;;;36.37;21.20;;;;;;;;;;752454;184;630731;-67
2022/03/09 08:37:09;;;;;;;45.30;24.37;;;;;;;;;;750850;184;813506;-66
2022/03/09 08:39:35;;;;;;;40.33;22.30;;;;;;;;;;757983;184;623492;-66
2022/03/09 08:42:01;;;;;;;37.93;22.13;;;;;;;;;;757399;184;659072;-66
2022/03/09 08:44:26;;;;;;;36.57;21.33;;;;;;;;;;759022;183;628167;-65
2022/03/09 08:46:53;;;;;;;37.43;22.10;;;;;;;;;;758723;183;637281;-65
2022/03/09 08:49:18;;;;;;;28.13;19.37;;;;;;;;;;765450;181;625472;-66
2022/03/09 08:51:44;;;;;;;32.97;18.67;;;;;;;;;;760272;183;638243;-66
2022/03/09 08:54:10;;;;;;;38.80;20.97;;;;;;;;;;751820;183;626876;-66
2022/03/09 08:56:36;;;;;;;36.07;20.13;;;;;;;;;;762924;183;614076;-66
2022/03/09 08:59:02;;;;;;;32.63;20.50;;;;;;;;;;758005;183;632920;-66
2022/03/09 09:01:27;;;;;;;35.83;19.90;;;;;;;;;;755139;183;624558;-66
2022/03/09 09:03:53;;;;;;;31.97;20.53;;;;;;;;;;763620;184;642249;-66
2022/03/09 09:06:19;;;;;;;28.00;17.83;;;;;;;;;;757067;183;688201;-67
2022/03/09 09:08:45;;;;;;;37.17;19.33;;;;;;;;;;757022;184;623883;-67
2022/03/09 09:11:11;;;;;;;37.63;23.40;;;;;;;;;;761236;183;612050;-66
2022/03/09 09:13:37;;;;;;;32.57;20.63;;;;;;;;;;758639;183;625322;-67
2022/03/09 09:16:03;;;;;;;34.33;20.03;;;;;;;;;;755808;184;629068;-67
2022/03/09 09:18:28;;;;;;;34.43;21.30;;;;;;;;;;755384;184;636947;-67
2022/03/09 09:20:56;;;;;;;34.43;20.40;;;;;;;;;;759512;183;613442;-68
2022/03/09 09:23:20;;;;;;;36.60;20.10;;;;;;;;;;756128;184;622342;-67
2022/03/09 09:25:46;;;;;;;35.43;17.90;;;;;;;;;;756424;184;638258;-67
2022/03/09 09:28:12;;;;;;;32.47;19.67;;;;;;;;;;761032;184;625554;-67
2022/03/09 09:30:38;;;;;;;32.60;20.60;;;;;;;;;;758971;184;626314;-67
2022/03/09 09:33:04;;;;;;;36.33;18.75;;;;;;;;;;754337;184;635187;-67
2022/03/09 09:35:29;;;;;;;32.53;20.20;;;;;;;;;;759160;183;615403;-67
2022/03/09 09:37:55;;;;;;;21.23;14.13;;;;;;;;;;752037;184;629522;-67
2022/03/09 09:40:21;;;;;;;25.70;15.73;;;;;;;;;;756877;184;632959;-67
2022/03/09 09:42:47;;;;;;;21.83;11.53;;;;;;;;;;754402;184;705574;-67
2022/03/09 09:45:13;;;;;;;23.30;13.10;;;;;;;;;;745081;186;631465;-67
2022/03/09 09:47:39;;;;;;;23.30;12.83;;;;;;;;;;760476;184;634561;-67
2022/03/09 09:50:06;;;;;;;24.57;12.27;;;;;;;;;;747162;184;627445;-67
2022/03/09 09:52:33;;;;;;;25.43;15.70;;;;;;;;;;757218;184;629564;-67
2022/03/09 09:54:59;;;;;;;27.63;14.27;;;;;;;;;;759657;184;617295;-67
2022/03/09 09:57:24;;;;;;;24.67;14.57;;;;;;;;;;758813;184;614955;-67
2022/03/09 09:59:50;;;;;;;24.83;13.40;;;;;;;;;;754531;184;685057;-67
2022/03/09 10:02:16;;;;;;;21.47;13.03;;;;;;;;;;753518;184;627385;-67
2022/03/09 10:04:42;;;;;;;16.37;10.03;;;;;;;;;;764258;183;632580;-67
2022/03/09 10:07:08;;;;;;;26.12;12.30;;;;;;;;;;765082;183;633210;-66
2022/03/09 10:09:35;;;;;;;21.70;9.80;;;;;;;;;;754012;184;629823;-66
2022/03/09 10:12:01;;;;;;;15.67;8.90;;;;;;;;;;754396;184;633035;-66
2022/03/09 10:14:32;;;;;;;15.20;9.43;;;;;;;;;;756442;184;670118;-67
2022/03/09 10:16:59;;;;;;;31.80;12.77;;;;;;;;;;762158;183;630147;-66
2022/03/09 10:19:28;;;;;;;29.60;15.70;;;;;;;;;;757227;184;633492;-67
2022/03/09 10:21:54;;;;;;;18.93;9.97;;;;;;;;;;753828;184;1488200;-66
2022/03/09 10:24:24;;;;;;;14.13;7.53;;;;;;;;;;754410;184;637129;-66
2022/03/09 10:26:46;;;;;;;13.00;7.43;;;;;;;;;;756251;183;625068;-67
2022/03/09 10:29:12;;;;;;;11.70;8.53;;;;;;;;;;757739;183;626097;-67
2022/03/09 10:31:38;;;;;;;18.60;8.63;;;;;;;;;;757934;183;640940;-66
2022/03/09 10:34:04;;;;;;;11.70;7.27;;;;;;;;;;761496;183;627098;-67
2022/03/09 10:36:30;;;;;;;16.83;8.50;;;;;;;;;;755822;183;634932;-66
2022/03/09 10:38:56;;;;;;;41.73;22.63;;;;;;;;;;755907;184;626440;-66
2022/03/09 10:41:27;;;;;;;9.53;6.33;;;;;;;;;;756918;184;636180;-65
2022/03/09 10:43:53;;;;;;;14.00;7.57;;;;;;;;;;757865;184;615692;-68
2022/03/09 10:46:19;;;;;;;20.77;11.53;;;;;;;;;;755261;184;642923;-67
2022/03/09 10:48:49;;;;;;;11.00;6.13;;;;;;;;;;756787;184;625118;-67
2022/03/09 10:51:21;;;;;;;7.43;5.50;;;;;;;;;;759505;184;639409;-67
2022/03/09 10:53:47;;;;;;;10.43;5.97;;;;;;;;;;754920;185;625065;-67
2022/03/09 10:56:13;;;;;;;13.43;6.10;;;;;;;;;;751791;184;627438;-66
2022/03/09 10:58:40;;;;;;;12.83;4.90;;;;;;;;;;761432;184;653701;-66
2022/03/09 11:01:04;;;;;;;10.30;6.50;;;;;;;;;;758151;184;616455;-67
2022/03/09 11:03:30;;;;;;;11.80;7.50;;;;;;;;;;753593;183;628192;-66
2022/03/09 11:05:58;;;;;;;14.10;6.73;;;;;;;;;;753634;184;635192;-66
2022/03/09 11:08:24;;;;;;;11.00;6.40;;;;;;;;;;762510;184;626220;-67
2022/03/09 11:10:50;;;;;;;7.47;5.37;;;;;;;;;;759787;184;632247;-68
2022/03/09 11:13:15;;;;;;;10.90;6.40;;;;;;;;;;752599;184;620699;-67
2022/03/09 11:15:42;;;;;;;8.47;4.53;;;;;;;;;;761205;181;624923;-65
2022/03/09 11:18:07;;;;;;;11.90;7.60;;;;;;;;;;757927;185;626381;-66
2022/03/09 11:20:33;;;;;;;7.40;5.40;;;;;;;;;;747756;183;622767;-67
2022/03/09 11:22:59;;;;;;;13.20;6.67;;;;;;;;;;757122;183;625940;-67
2022/03/09 11:25:25;;;;;;;10.10;6.10;;;;;;;;;;762917;183;618367;-67
2022/03/09 11:27:53;;;;;;;12.70;6.80;;;;;;;;;;753464;184;630118;-66
2022/03/09 11:30:20;;;;;;;12.20;6.30;;;;;;;;;;757235;183;632584;-67
2022/03/09 11:32:46;;;;;;;9.57;5.90;;;;;;;;;;763085;183;620629;-66
2022/03/09 11:35:18;;;;;;;9.07;5.30;;;;;;;;;;753712;184;656349;-66
2022/03/09 11:37:44;;;;;;;11.10;6.00;;;;;;;;;;755367;184;627429;-66
2022/03/09 11:40:13;;;;;;;9.53;5.90;;;;;;;;;;766458;183;632717;-67
2022/03/09 11:42:38;;;;;;;10.60;5.87;;;;;;;;;;768158;183;681935;-66
2022/03/09 11:45:10;;;;;;;6.63;3.93;;;;;;;;;;756888;184;631395;-66
2022/03/09 11:47:42;;;;;;;9.20;4.80;;;;;;;;;;755762;184;633179;-66
2022/03/09 11:50:09;;;;;;;13.03;5.00;;;;;;;;;;752886;184;616967;-67
2022/03/09 11:52:33;;;;;;;8.40;4.27;;;;;;;;;;756315;184;619637;-66
2022/03/09 11:55:01;;;;;;;22.50;11.83;;;;;;;;;;760961;184;632933;-66
2022/03/09 11:57:42;;;;;;;9.20;5.33;;;;;;;;;;754404;184;631069;-66
2022/03/09 12:00:08;;;;;;;11.87;5.23;;;;;;;;;;754351;183;633378;-67
2022/03/09 12:02:37;;;;;;;8.55;4.72;;;;;;;;;;759826;184;625619;-66
2022/03/09 12:05:04;;;;;;;10.30;5.00;;;;;;;;;;756073;184;632668;-66
2022/03/09 12:07:44;;;;;;;8.63;4.60;;;;;;;;;;757694;184;641636;-67
2022/03/09 12:10:10;;;;;;;5.82;3.25;;;;;;;;;;753549;184;635311;-66
2022/03/09 12:12:35;;;;;;;13.73;7.40;;;;;;;;;;754982;184;842641;-66
2022/03/09 12:15:01;;;;;;;12.40;5.13;;;;;;;;;;759779;184;635646;-67
2022/03/09 12:17:28;;;;;;;10.40;6.50;;;;;;;;;;756182;183;622213;-66
2022/03/09 12:20:00;;;;;;;9.27;4.73;;;;;;;;;;754450;185;623681;-66
2022/03/09 12:22:25;;;;;;;16.40;4.20;;;;;;;;;;760192;184;624142;-66
2022/03/09 12:24:51;;;;;;;7.70;5.00;;;;;;;;;;753857;181;629710;-67
2022/03/09 12:27:21;;;;;;;7.50;4.50;;;;;;;;;;757126;183;619146;-66
2022/03/09 12:29:47;;;;;;;12.40;4.83;;;;;;;;;;757138;184;620804;-66
2022/03/09 12:32:13;;;;;;;8.97;4.50;;;;;;;;;;761819;183;640089;-66
2022/03/09 12:34:40;;;;;;;10.50;5.60;;;;;;;;;;758048;182;625668;-66
2022/03/09 12:37:06;;;;;;;9.20;5.00;;;;;;;;;;755855;183;614732;-66
2022/03/09 12:39:32;;;;;;;6.90;3.50;;;;;;;;;;760816;183;628467;-66
2022/03/09 12:41:59;;;;;;;10.20;4.97;;;;;;;;;;757348;184;619725;-67
2022/03/09 12:44:25;;;;;;;8.73;6.00;;;;;;;;;;756385;184;627281;-66
2022/03/09 12:46:50;;;;;;;8.00;4.40;;;;;;;;;;755219;184;616182;-66
2022/03/09 12:49:16;;;;;;;23.20;4.10;;;;;;;;;;757856;184;618955;-66
2022/03/09 12:51:48;;;;;;;8.27;4.23;;;;;;;;;;756465;184;637146;-66
2022/03/09 12:54:14;;;;;;;6.47;2.70;;;;;;;;;;756004;184;638231;-66
2022/03/09 12:56:40;;;;;;;16.60;4.87;;;;;;;;;;758629;184;617509;-68
2022/03/09 12:59:07;;;;;;;11.03;5.63;;;;;;;;;;757649;184;624905;-66
2022/03/09 13:01:33;;;;;;;8.80;4.40;;;;;;;;;;755958;184;627221;-66
2022/03/09 13:03:59;;;;;;;7.23;3.30;;;;;;;;;;756467;184;623858;-66
2022/03/09 13:06:25;;;;;;;6.60;4.77;;;;;;;;;;760205;184;620371;-66
2022/03/09 13:08:51;;;;;;;9.00;4.70;;;;;;;;;;757236;184;626820;-66
2022/03/09 13:11:31;;;;;;;8.90;4.90;;;;;;;;;;757631;184;620131;-67
2022/03/09 13:13:57;;;;;;;11.33;5.53;;;;;;;;;;755432;184;631671;-66
2022/03/09 13:16:25;;;;;;;10.00;6.87;;;;;;;;;;755033;184;769347;-66
2022/03/09 13:18:49;;;;;;;9.87;4.70;;;;;;;;;;754826;184;633094;-66
2022/03/09 13:21:16;;;;;;;11.03;5.60;;;;;;;;;;756706;184;632642;-67
2022/03/09 13:23:43;;;;;;;8.70;5.10;;;;;;;;;;757292;184;618674;-66
2022/03/09 13:26:11;;;;;;;12.30;6.27;;;;;;;;;;756848;184;622855;-67
2022/03/09 13:28:37;;;;;;;11.57;4.37;;;;;;;;;;757303;184;639489;-67
2022/03/09 13:31:03;;;;;;;9.23;5.72;;;;;;;;;;761546;184;644224;-67
2022/03/09 13:33:29;;;;;;;11.53;4.47;;;;;;;;;;760241;184;623792;-67
2022/03/09 13:35:55;;;;;;;15.63;5.57;;;;;;;;;;755602;184;633483;-66
2022/03/09 13:38:21;;;;;;;18.37;9.27;;;;;;;;;;756638;182;628090;-66
2022/03/09 13:40:46;;;;;;;13.57;5.80;;;;;;;;;;762096;184;624740;-67
2022/03/09 13:43:12;;;;;;;7.07;4.37;;;;;;;;;;754949;183;655688;-67
2022/03/09 13:45:41;;;;;;;8.43;5.07;;;;;;;;;;757093;183;627781;-66
2022/03/09 13:48:05;;;;;;;7.63;4.80;;;;;;;;;;760704;184;636259;-66
2022/03/09 13:50:31;;;;;;;10.90;5.27;;;;;;;;;;757018;183;628153;-66
2022/03/09 13:53:03;;;;;;;9.50;5.23;;;;;;;;;;750604;183;627422;-65
2022/03/09 13:55:28;;;;;;;7.80;4.90;;;;;;;;;;765159;183;734771;-66
2022/03/09 13:57:57;;;;;;;15.40;6.07;;;;;;;;;;758502;184;614712;-66
2022/03/09 14:00:27;;;;;;;10.50;4.43;;;;;;;;;;755722;184;639894;-66
2022/03/09 14:02:53;;;;;;;9.27;4.20;;;;;;;;;;755434;184;619586;-66